Time,TemperatureF,DewpointF,PressureIn,WindDirection,WindDirectionDegrees,WindSpeedMPH,WindSpeedGustMPH,Humidity,HourlyPrecipIn,Conditions,Clouds,dailyrainin,SoftwareType,DateUTC
2013-02-03 00:12:00,46.6,41.0,30.03,WNW,291,3.0,8.0,81,0.00,,,0.00,weatherlink.com 1.10,2013-02-03 05:12:00,
2013-02-03 00:27:00,47.0,41.0,30.02,West,265,4.0,12.0,79,0.00,,,0.00,weatherlink.com 1.10,2013-02-03 05:27:00,
2013-02-03 00:42:00,47.4,41.0,30.01,West,280,6.0,11.0,79,0.00,,,0.00,weatherlink.com 1.10,2013-02-03 05:42:00,
2013-02-03 00:57:00,47.3,41.0,30.01,WNW,284,6.0,12.0,79,0.00,,,0.00,weatherlink.com 1.10,2013-02-03 05:57:00,
2013-02-03 01:12:00,46.2,40.0,30.01,WNW,301,4.0,13.0,80,0.00,,,0.00,weatherlink.com 1.10,2013-02-03 06:12:00,
2013-02-03 01:29:00,44.9,39.0,30.01,NW,311,7.0,10.0,81,0.00,,,0.00,weatherlink.com 1.10,2013-02-03 06:29:00,
2013-02-03 01:42:00,44.4,39.0,30.00,WNW,300,4.0,8.0,82,0.00,,,0.00,weatherlink.com 1.10,2013-02-03 06:42:00,
2013-02-03 01:57:00,43.6,39.0,29.98,WNW,298,6.0,8.0,83,0.00,,,0.00,weatherlink.com 1.10,2013-02-03 06:57:00,
2013-02-03 02:12:00,43.0,39.0,29.99,WNW,291,3.0,5.0,84,0.00,,,0.00,weatherlink.com 1.10,2013-02-03 07:12:00,
2013-02-03 02:27:00,43.0,39.0,29.98,WNW,291,1.0,5.0,84,0.00,,,0.00,weatherlink.com 1.10,2013-02-03 07:27:00,
2013-02-03 02:42:00,42.9,38.0,29.98,WNW,286,0.0,4.0,84,0.00,,,0.00,weatherlink.com 1.10,2013-02-03 07:42:00,
2013-02-03 02:57:00,42.7,38.0,29.98,WNW,286,0.0,2.0,84,0.00,,,0.00,weatherlink.com 1.10,2013-02-03 07:57:00,
2013-02-03 03:12:00,42.5,38.0,29.97,WNW,286,0.0,3.0,84,0.00,,,0.00,weatherlink.com 1.10,2013-02-03 08:12:00,
2013-02-03 03:27:00,42.1,38.0,29.96,WNW,286,0.0,1.0,84,0.00,,,0.00,weatherlink.com 1.10,2013-02-03 08:27:00,
2013-02-03 03:42:00,41.2,37.0,29.96,WNW,286,2.0,3.0,85,0.00,,,0.00,weatherlink.com 1.10,2013-02-03 08:42:00,
2013-02-03 03:57:00,40.7,37.0,29.95,WNW,286,0.0,1.0,86,0.00,,,0.00,weatherlink.com 1.10,2013-02-03 08:57:00,
2013-02-03 04:12:00,39.8,36.0,29.95,WNW,286,1.0,2.0,87,0.00,,,0.00,weatherlink.com 1.10,2013-02-03 09:12:00,
2013-02-03 04:27:00,39.2,36.0,29.95,WNW,286,0.0,2.0,88,0.00,,,0.00,weatherlink.com 1.10,2013-02-03 09:27:00,
2013-02-03 04:42:00,38.4,36.0,29.94,WNW,286,0.0,0.0,89,0.00,,,0.00,weatherlink.com 1.10,2013-02-03 09:42:00,
2013-02-03 04:57:00,37.7,35.0,29.94,WNW,286,0.0,0.0,89,0.00,,,0.00,weatherlink.com 1.10,2013-02-03 09:57:00,
2013-02-03 05:12:00,37.5,35.0,29.93,WNW,286,0.0,0.0,90,0.00,,,0.00,weatherlink.com 1.10,2013-02-03 10:12:00,
2013-02-03 05:27:00,37.3,35.0,29.93,WNW,286,0.0,2.0,90,0.00,,,0.00,weatherlink.com 1.10,2013-02-03 10:27:00,
2013-02-03 05:43:00,36.9,34.0,29.94,WNW,286,0.0,0.0,90,0.00,,,0.00,weatherlink.com 1.10,2013-02-03 10:43:00,
2013-02-03 05:58:00,36.8,34.0,29.94,WNW,286,0.0,0.0,90,0.00,,,0.00,weatherlink.com 1.10,2013-02-03 10:58:00,
2013-02-03 06:13:00,37.0,34.0,29.93,WNW,286,0.0,0.0,90,0.00,,,0.00,weatherlink.com 1.10,2013-02-03 11:13:00,
2013-02-03 06:28:00,37.1,35.0,29.93,WNW,286,1.0,3.0,90,0.00,,,0.00,weatherlink.com 1.10,2013-02-03 11:28:00,
2013-02-03 06:43:00,37.4,35.0,29.92,WNW,286,2.0,5.0,90,0.00,,,0.00,weatherlink.com 1.10,2013-02-03 11:43:00,
2013-02-03 06:58:00,36.6,34.0,29.93,WNW,286,0.0,3.0,90,0.00,,,0.00,weatherlink.com 1.10,2013-02-03 11:58:00,
2013-02-03 07:13:00,36.1,34.0,29.93,WNW,286,1.0,2.0,90,0.00,,,0.00,weatherlink.com 1.10,2013-02-03 12:13:00,
2013-02-03 07:28:00,36.0,33.0,29.93,WNW,286,2.0,2.0,90,0.00,,,0.00,weatherlink.com 1.10,2013-02-03 12:28:00,
2013-02-03 07:43:00,36.2,34.0,29.94,WNW,286,0.0,3.0,91,0.00,,,0.00,weatherlink.com 1.10,2013-02-03 12:43:00,
2013-02-03 07:58:00,36.9,35.0,29.95,WNW,286,0.0,5.0,91,0.00,,,0.00,weatherlink.com 1.10,2013-02-03 12:58:00,
2013-02-03 08:13:00,38.2,36.0,29.96,WNW,286,4.0,6.0,91,0.00,,,0.00,weatherlink.com 1.10,2013-02-03 13:13:00,
2013-02-03 08:28:00,38.7,36.0,29.96,West,273,4.0,7.0,91,0.00,,,0.00,weatherlink.com 1.10,2013-02-03 13:28:00,
2013-02-03 08:43:00,39.3,37.0,29.96,West,279,7.0,10.0,90,0.00,,,0.00,weatherlink.com 1.10,2013-02-03 13:43:00,
2013-02-03 08:58:00,40.1,38.0,29.96,West,278,4.0,8.0,90,0.00,,,0.00,weatherlink.com 1.10,2013-02-03 13:58:00,
2013-02-03 09:13:00,40.9,38.0,29.96,West,276,5.0,12.0,89,0.00,,,0.00,weatherlink.com 1.10,2013-02-03 14:13:00,
2013-02-03 09:28:00,42.2,39.0,29.95,WNW,290,7.0,11.0,87,0.00,,,0.00,weatherlink.com 1.10,2013-02-03 14:28:00,
2013-02-03 09:43:00,43.6,39.0,29.95,WNW,298,5.0,10.0,85,0.00,,,0.00,weatherlink.com 1.10,2013-02-03 14:43:00,
2013-02-03 09:58:00,45.3,40.0,29.95,NNW,336,3.0,8.0,82,0.00,,,0.00,weatherlink.com 1.10,2013-02-03 14:58:00,
2013-02-03 10:13:00,46.2,40.0,29.95,NNW,341,5.0,13.0,79,0.00,,,0.00,weatherlink.com 1.10,2013-02-03 15:13:00,
2013-02-03 10:28:00,47.1,40.0,29.95,NNW,337,8.0,12.0,76,0.00,,,0.00,weatherlink.com 1.10,2013-02-03 15:28:00,
2013-02-03 10:43:00,48.3,40.0,29.94,North,355,6.0,10.0,73,0.00,,,0.00,weatherlink.com 1.10,2013-02-03 15:43:00,
2013-02-03 10:58:00,49.1,40.0,29.93,WNW,300,7.0,9.0,72,0.00,,,0.00,weatherlink.com 1.10,2013-02-03 15:58:00,
2013-02-03 11:13:00,50.3,40.0,29.94,NW,319,5.0,12.0,67,0.00,,,0.00,weatherlink.com 1.10,2013-02-03 16:13:00,
2013-02-03 11:28:00,50.9,40.0,29.93,WNW,296,10.0,13.0,67,0.00,,,0.00,weatherlink.com 1.10,2013-02-03 16:28:00,
2013-02-03 11:43:00,51.1,40.0,29.93,WNW,294,8.0,13.0,67,0.00,,,0.00,weatherlink.com 1.10,2013-02-03 16:43:00,
2013-02-03 11:58:00,51.6,40.0,29.92,West,275,4.0,14.0,64,0.00,,,0.00,weatherlink.com 1.10,2013-02-03 16:58:00,
2013-02-03 12:13:00,51.3,39.0,29.92,NW,309,7.0,14.0,64,0.00,,,0.00,weatherlink.com 1.10,2013-02-03 17:13:00,
2013-02-03 12:28:00,50.5,38.0,29.91,West,259,7.0,13.0,62,0.00,,,0.00,weatherlink.com 1.10,2013-02-03 17:28:00,
2013-02-03 12:43:00,52.2,38.0,29.90,West,278,10.0,15.0,60,0.00,,,0.00,weatherlink.com 1.10,2013-02-03 17:43:00,
2013-02-03 12:59:00,53.7,39.0,29.89,NW,309,16.0,16.0,58,0.00,,,0.00,weatherlink.com 1.10,2013-02-03 17:59:00,
2013-02-03 13:13:00,53.4,37.0,29.89,West,270,5.0,16.0,55,0.00,,,0.00,weatherlink.com 1.10,2013-02-03 18:13:00,
2013-02-03 13:28:00,53.5,37.0,29.87,NW,308,10.0,14.0,55,0.00,,,0.00,weatherlink.com 1.10,2013-02-03 18:28:00,
2013-02-03 13:43:00,53.2,37.0,29.86,NNW,332,4.0,12.0,54,0.00,,,0.00,weatherlink.com 1.10,2013-02-03 18:43:00,
2013-02-03 13:59:00,53.9,36.0,29.86,WNW,296,6.0,15.0,52,0.00,,,0.00,weatherlink.com 1.10,2013-02-03 18:59:00,
2013-02-03 14:13:00,53.8,35.0,29.86,WNW,302,10.0,20.0,50,0.00,,,0.00,weatherlink.com 1.10,2013-02-03 19:13:00,
2013-02-03 14:29:00,53.2,35.0,29.85,NNW,335,11.0,16.0,51,0.00,,,0.00,weatherlink.com 1.10,2013-02-03 19:29:00,
2013-02-03 14:59:00,52.1,35.0,29.86,NW,304,9.0,14.0,53,0.00,,,0.00,weatherlink.com 1.10,2013-02-03 19:59:00,
2013-02-03 15:14:00,52.6,36.0,29.86,NNW,329,10.0,15.0,53,0.00,,,0.00,weatherlink.com 1.10,2013-02-03 20:14:00,
2013-02-03 15:28:00,52.6,35.0,29.86,WNW,300,4.0,15.0,51,0.00,,,0.00,weatherlink.com 1.10,2013-02-03 20:28:00,
2013-02-03 15:43:00,52.5,34.0,29.87,West,279,8.0,20.0,49,0.00,,,0.00,weatherlink.com 1.10,2013-02-03 20:43:00,
2013-02-03 15:58:00,52.9,35.0,29.87,WNW,288,9.0,14.0,50,0.00,,,0.00,weatherlink.com 1.10,2013-02-03 20:58:00,
2013-02-03 16:13:00,52.3,34.0,29.87,West,279,9.0,15.0,50,0.00,,,0.00,weatherlink.com 1.10,2013-02-03 21:13:00,
2013-02-03 16:28:00,51.6,34.0,29.88,West,277,9.0,16.0,51,0.00,,,0.00,weatherlink.com 1.10,2013-02-03 21:28:00,
2013-02-03 16:43:00,51.3,34.0,29.88,WNW,297,8.0,15.0,52,0.00,,,0.00,weatherlink.com 1.10,2013-02-03 21:43:00,
2013-02-03 16:59:00,50.6,35.0,29.88,WNW,300,4.0,9.0,55,0.00,,,0.00,weatherlink.com 1.10,2013-02-03 21:59:00,
2013-02-03 17:14:00,49.8,34.0,29.88,NNW,338,6.0,8.0,55,0.00,,,0.00,weatherlink.com 1.10,2013-02-03 22:14:00,
2013-02-03 17:28:00,48.9,34.0,29.88,NW,309,4.0,7.0,57,0.00,,,0.00,weatherlink.com 1.10,2013-02-03 22:28:00,
2013-02-03 17:44:00,48.1,34.0,29.88,NW,308,3.0,5.0,58,0.00,,,0.00,weatherlink.com 1.10,2013-02-03 22:44:00,
2013-02-03 17:59:00,46.8,34.0,29.89,NW,308,0.0,2.0,61,0.00,,,0.00,weatherlink.com 1.10,2013-02-03 22:59:00,
2013-02-03 18:13:00,44.9,34.0,29.89,NW,308,0.0,1.0,65,0.00,,,0.00,weatherlink.com 1.10,2013-02-03 23:13:00,
2013-02-03 18:28:00,43.9,34.0,29.89,NW,308,0.0,0.0,67,0.00,,,0.00,weatherlink.com 1.10,2013-02-03 23:28:00,
2013-02-03 18:43:00,43.3,33.0,29.90,NW,308,0.0,0.0,68,0.00,,,0.00,weatherlink.com 1.10,2013-02-03 23:43:00,
2013-02-03 18:58:00,42.8,35.0,29.91,NW,308,0.0,2.0,74,0.00,,,0.00,weatherlink.com 1.10,2013-02-03 23:58:00,
2013-02-03 19:13:00,42.0,35.0,29.91,NW,308,0.0,2.0,76,0.00,,,0.00,weatherlink.com 1.10,2013-02-04 00:13:00,
2013-02-03 19:28:00,41.0,35.0,29.91,NW,308,0.0,0.0,79,0.00,,,0.00,weatherlink.com 1.10,2013-02-04 00:28:00,
2013-02-03 19:43:00,40.3,35.0,29.92,NW,308,0.0,2.0,80,0.00,,,0.00,weatherlink.com 1.10,2013-02-04 00:43:00,
2013-02-03 19:58:00,39.8,34.0,29.92,NW,308,0.0,0.0,81,0.00,,,0.00,weatherlink.com 1.10,2013-02-04 00:58:00,
2013-02-03 20:13:00,39.3,34.0,29.92,NW,308,0.0,2.0,81,0.00,,,0.00,weatherlink.com 1.10,2013-02-04 01:13:00,
2013-02-03 20:28:00,38.9,34.0,29.93,NW,308,0.0,3.0,83,0.00,,,0.00,weatherlink.com 1.10,2013-02-04 01:28:00,
2013-02-03 20:43:00,38.6,34.0,29.93,NW,308,0.0,1.0,83,0.00,,,0.00,weatherlink.com 1.10,2013-02-04 01:43:00,
2013-02-03 20:58:00,38.2,34.0,29.93,NW,308,0.0,3.0,84,0.00,,,0.00,weatherlink.com 1.10,2013-02-04 01:58:00,
2013-02-03 21:28:00,38.1,34.0,29.93,NW,308,1.0,2.0,86,0.00,,,0.00,weatherlink.com 1.10,2013-02-04 02:28:00,
2013-02-03 21:43:00,37.8,34.0,29.94,NW,308,2.0,4.0,85,0.00,,,0.00,weatherlink.com 1.10,2013-02-04 02:43:00,
2013-02-03 21:58:00,37.9,34.0,29.94,NW,308,3.0,5.0,86,0.00,,,0.00,weatherlink.com 1.10,2013-02-04 02:58:00,
2013-02-03 22:13:00,37.8,34.0,29.95,NW,308,4.0,6.0,85,0.00,,,0.00,weatherlink.com 1.10,2013-02-04 03:13:00,
2013-02-03 22:28:00,39.0,34.0,29.95,NW,308,5.0,7.0,82,0.00,,,0.00,weatherlink.com 1.10,2013-02-04 03:28:00,
2013-02-03 22:43:00,39.8,34.0,29.95,WNW,302,4.0,7.0,79,0.00,,,0.00,weatherlink.com 1.10,2013-02-04 03:43:00,
2013-02-03 22:58:00,40.0,34.0,29.95,NW,320,4.0,8.0,78,0.00,,,0.00,weatherlink.com 1.10,2013-02-04 03:58:00,
2013-02-03 23:13:00,41.0,34.0,29.96,WNW,302,3.0,6.0,77,0.00,,,0.00,weatherlink.com 1.10,2013-02-04 04:13:00,
2013-02-03 23:28:00,41.5,34.0,29.96,NNW,328,5.0,7.0,75,0.00,,,0.00,weatherlink.com 1.10,2013-02-04 04:28:00,
2013-02-03 23:44:00,41.5,34.0,29.96,NNW,336,4.0,6.0,75,0.00,,,0.00,weatherlink.com 1.10,2013-02-04 04:44:00,
2013-02-03 23:58:00,41.6,34.0,29.97,North,350,6.0,7.0,75,0.00,,,0.00,weatherlink.com 1.10,2013-02-04 04:58:00,